Terminal Aerodrome Forecast
Issued by NWS

Home | Current Version | Previous Version | Text Only | Print | Product List | Glossary On
Versions: 1 2 3 4 5 6 7 8 9 10 11 12 13 14 15 16 17
000
FTUS43 KEAX 242320
TAFSTJ
TAF
KSTJ 242320Z 2500/2524 10007KT P6SM VCSH BKN025
     FM250300 VRB05KT 6SM -SHRA BKN015
     FM250500 09006KT 5SM -SHRA OVC008
     FM250800 06006KT P6SM VCSH BKN008
     FM251800 35011KT P6SM OVC008=

USA.gov is the U.S. government's official web portal to all federal, state and local government web resources and services.